Lavon, Texas
Current Conditions -  °F | °C
As of 5:55 AM on Sunday 23 Nov 2014 (Local Time) from KF46 Reporting Station
Haze Haze  
Wind Chill: 56°   Ceiling: Unl
Heat Index: 56°   Visibility: 5mi
Dew Point: 56°   Wind: 6mph
Humidity: 100%   Direction: 180°S
Pressure: 29.57"   Gusts: NA
Location:  33.03°N, 96.43°W
Report Text: KF46 231155Z AUTO 18005KT 5SM BR SCT002 14/14 A2957 RMK AO2 70027 T01350135 10147 20135
Loading
Personal Weather Stations






























Interactive Weather Map New forecast layout! Learn more

10-Day Weather Forecast

Advertisements
Track Severe Weather on mobile